Time;durP1;ratioP1;P1;durP2;ratioP2;P2;SDS_P1;SDS_P2;PMS_P1;PMS_P2;Temp;Humidity;BMP_temperature;BMP_pressure;BME280_temperature;BME280_humidity;BME280_pressure;Samples;Min_cycle;Max_cycle;Signal;HPM_P1;HPM_P2
2024/01/31 00:00:07;;;;;;;14.52;9.82;;;;;;;;;;5046223;28;20053;-84
2024/01/31 00:02:34;;;;;;;14.85;9.10;;;;;;;;;;5045986;28;20064;-84
2024/01/31 00:05:01;;;;;;;13.65;9.05;;;;;;;;;;5046986;28;20475;-84
2024/01/31 00:07:29;;;;;;;12.68;9.32;;;;;;;;;;5028116;28;20053;-83
2024/01/31 00:09:56;;;;;;;11.63;8.60;;;;;;;;;;5028324;28;20046;-84
2024/01/31 00:12:23;;;;;;;13.73;9.10;;;;;;;;;;5036972;28;20049;-85
2024/01/31 00:14:51;;;;;;;12.45;8.77;;;;;;;;;;5036078;28;20052;-84
2024/01/31 00:17:18;;;;;;;11.48;8.85;;;;;;;;;;5044458;28;20434;-84
2024/01/31 00:19:45;;;;;;;14.15;9.68;;;;;;;;;;5052525;28;20045;-84
2024/01/31 00:22:13;;;;;;;12.48;9.55;;;;;;;;;;5036313;28;20050;-84
2024/01/31 00:24:41;;;;;;;15.65;9.38;;;;;;;;;;5043295;28;20091;-85
2024/01/31 00:27:09;;;;;;;13.57;9.80;;;;;;;;;;5049149;28;20098;-84
2024/01/31 00:29:37;;;;;;;15.65;9.30;;;;;;;;;;5028233;28;20052;-84
2024/01/31 00:32:05;;;;;;;12.10;8.43;;;;;;;;;;5027367;28;20140;-84
2024/01/31 00:34:33;;;;;;;13.57;9.20;;;;;;;;;;5021645;28;20058;-84
2024/01/31 00:37:00;;;;;;;13.70;9.07;;;;;;;;;;5036633;28;20050;-84
2024/01/31 00:39:31;;;;;;;12.70;8.20;;;;;;;;;;5027193;28;20049;-84
2024/01/31 00:41:59;;;;;;;14.07;8.70;;;;;;;;;;5027046;28;20054;-84
2024/01/31 00:44:26;;;;;;;12.88;8.20;;;;;;;;;;5019124;28;20050;-84
2024/01/31 00:46:54;;;;;;;12.98;7.97;;;;;;;;;;5030273;28;20545;-84
2024/01/31 00:49:21;;;;;;;10.65;8.15;;;;;;;;;;5033411;28;20050;-84
2024/01/31 00:51:52;;;;;;;10.43;8.10;;;;;;;;;;5031946;28;20101;-83
2024/01/31 00:54:20;;;;;;;10.60;7.93;;;;;;;;;;5030553;28;20053;-84
2024/01/31 00:56:47;;;;;;;10.50;7.78;;;;;;;;;;5043364;28;20553;-84
2024/01/31 00:59:15;;;;;;;9.45;7.00;;;;;;;;;;5032820;28;20053;-84
2024/01/31 01:01:42;;;;;;;12.68;7.75;;;;;;;;;;5029648;28;20060;-84
2024/01/31 01:04:09;;;;;;;11.68;7.95;;;;;;;;;;5048566;28;20061;-84
2024/01/31 01:06:39;;;;;;;12.73;8.10;;;;;;;;;;5029890;28;20077;-84
2024/01/31 01:09:07;;;;;;;13.15;8.32;;;;;;;;;;5036204;28;20487;-84
2024/01/31 01:11:35;;;;;;;11.45;7.70;;;;;;;;;;5042116;28;20053;-84
2024/01/31 01:14:02;;;;;;;12.07;7.57;;;;;;;;;;5051314;28;20049;-84
2024/01/31 01:16:30;;;;;;;13.27;7.75;;;;;;;;;;5051726;28;20049;-84
2024/01/31 01:18:58;;;;;;;12.50;7.78;;;;;;;;;;5038349;28;20050;-84
2024/01/31 01:21:25;;;;;;;14.57;8.07;;;;;;;;;;5051463;28;20057;-84
2024/01/31 01:23:52;;;;;;;13.25;8.10;;;;;;;;;;5038992;28;20415;-84
2024/01/31 01:26:20;;;;;;;13.75;8.30;;;;;;;;;;5054902;28;20045;-84
2024/01/31 01:28:47;;;;;;;13.23;7.68;;;;;;;;;;5052089;28;20053;-84
2024/01/31 01:31:14;;;;;;;12.63;7.88;;;;;;;;;;5051940;28;20050;-85
2024/01/31 01:33:42;;;;;;;11.05;7.50;;;;;;;;;;5051942;28;20049;-84
2024/01/31 01:36:09;;;;;;;11.95;7.65;;;;;;;;;;5053614;28;20110;-84
2024/01/31 01:38:37;;;;;;;11.88;7.55;;;;;;;;;;5041701;28;20046;-85
2024/01/31 01:41:05;;;;;;;12.43;7.03;;;;;;;;;;5061220;28;20060;-84
2024/01/31 01:43:32;;;;;;;11.70;7.60;;;;;;;;;;5052971;28;20056;-85
2024/01/31 01:46:07;;;;;;;9.60;7.40;;;;;;;;;;5054689;28;20053;-84
2024/01/31 01:48:34;;;;;;;14.55;7.95;;;;;;;;;;5038608;28;20053;-84
2024/01/31 01:51:02;;;;;;;12.70;7.93;;;;;;;;;;5056089;28;20052;-84
2024/01/31 01:53:30;;;;;;;12.23;7.70;;;;;;;;;;5042088;28;20133;-84
2024/01/31 01:55:57;;;;;;;11.68;7.70;;;;;;;;;;5034983;28;20049;-85
2024/01/31 01:58:25;;;;;;;10.52;7.03;;;;;;;;;;5051024;28;20147;-84
2024/01/31 02:00:53;;;;;;;12.13;6.68;;;;;;;;;;5040389;28;20058;-84
2024/01/31 02:03:21;;;;;;;10.10;6.90;;;;;;;;;;5033259;28;20045;-82
2024/01/31 02:05:49;;;;;;;13.77;7.72;;;;;;;;;;5030544;28;20050;-84
2024/01/31 02:08:17;;;;;;;11.93;7.45;;;;;;;;;;5045858;28;20477;-84
2024/01/31 02:10:44;;;;;;;10.13;7.40;;;;;;;;;;5035383;28;20073;-84
2024/01/31 02:13:11;;;;;;;11.43;7.80;;;;;;;;;;5034587;28;20082;-84
2024/01/31 02:15:38;;;;;;;12.65;7.13;;;;;;;;;;5046913;28;20045;-84
2024/01/31 02:18:06;;;;;;;15.07;7.20;;;;;;;;;;5030801;28;20464;-84
2024/01/31 02:20:35;;;;;;;12.32;7.38;;;;;;;;;;5044091;28;20049;-84
2024/01/31 02:23:02;;;;;;;8.60;7.20;;;;;;;;;;5034841;28;20054;-84
2024/01/31 02:25:29;;;;;;;11.85;8.35;;;;;;;;;;5037300;28;20077;-84
2024/01/31 02:27:57;;;;;;;15.95;7.55;;;;;;;;;;5031208;28;20053;-84
2024/01/31 02:30:24;;;;;;;12.02;8.10;;;;;;;;;;5047369;28;20090;-84
2024/01/31 02:32:54;;;;;;;10.52;6.82;;;;;;;;;;5031138;28;20092;-83
2024/01/31 02:35:21;;;;;;;11.55;7.22;;;;;;;;;;5038785;28;20045;-84
2024/01/31 02:37:48;;;;;;;11.40;7.22;;;;;;;;;;5027921;28;20041;-84
2024/01/31 02:40:16;;;;;;;9.90;7.15;;;;;;;;;;5047869;28;20111;-84
2024/01/31 02:42:43;;;;;;;11.02;7.00;;;;;;;;;;5050587;28;20399;-85
2024/01/31 02:45:11;;;;;;;9.73;6.57;;;;;;;;;;5048141;28;20052;-84
2024/01/31 02:47:39;;;;;;;9.63;6.78;;;;;;;;;;5030540;28;20050;-85
2024/01/31 02:50:06;;;;;;;9.23;6.88;;;;;;;;;;5045456;28;20053;-84
2024/01/31 02:52:34;;;;;;;10.10;6.78;;;;;;;;;;5048737;28;20454;-84
2024/01/31 02:55:02;;;;;;;10.07;7.40;;;;;;;;;;5060118;28;20113;-84
2024/01/31 02:57:29;;;;;;;10.07;7.53;;;;;;;;;;5049094;28;20406;-84
2024/01/31 02:59:57;;;;;;;8.75;6.72;;;;;;;;;;5048466;28;20045;-84
2024/01/31 03:02:24;;;;;;;11.77;6.28;;;;;;;;;;5034068;28;20050;-84
2024/01/31 03:04:51;;;;;;;8.93;6.50;;;;;;;;;;5038961;28;20132;-84
2024/01/31 03:07:18;;;;;;;9.35;7.10;;;;;;;;;;5042479;28;20171;-84
2024/01/31 03:09:46;;;;;;;10.73;7.03;;;;;;;;;;5045937;28;20510;-84
2024/01/31 03:12:14;;;;;;;14.55;7.60;;;;;;;;;;5028437;28;20045;-82
2024/01/31 03:14:42;;;;;;;12.43;7.43;;;;;;;;;;5031665;28;20053;-83
2024/01/31 03:17:09;;;;;;;12.73;7.00;;;;;;;;;;5025258;28;20050;-82
2024/01/31 03:19:37;;;;;;;11.23;7.22;;;;;;;;;;5034434;28;20053;-82
2024/01/31 03:22:06;;;;;;;8.73;6.95;;;;;;;;;;5033292;28;20057;-82
2024/01/31 03:24:33;;;;;;;13.45;7.45;;;;;;;;;;5026967;28;20147;-82
2024/01/31 03:27:00;;;;;;;8.80;7.28;;;;;;;;;;5026560;28;20053;-82
2024/01/31 03:29:27;;;;;;;15.25;7.40;;;;;;;;;;5024947;28;20460;-82
2024/01/31 03:31:55;;;;;;;9.88;7.28;;;;;;;;;;5024492;28;20388;-82
2024/01/31 03:34:22;;;;;;;11.52;7.00;;;;;;;;;;5033365;28;20049;-82
2024/01/31 03:36:50;;;;;;;9.75;6.85;;;;;;;;;;5032039;28;20100;-82
2024/01/31 03:39:19;;;;;;;12.80;6.13;;;;;;;;;;5032525;28;20111;-82
2024/01/31 03:41:46;;;;;;;11.40;7.00;;;;;;;;;;5031405;28;20049;-83
2024/01/31 03:44:13;;;;;;;11.02;6.68;;;;;;;;;;5043677;23;20045;-84
2024/01/31 03:46:41;;;;;;;8.75;6.57;;;;;;;;;;5050316;28;20466;-84
2024/01/31 03:49:08;;;;;;;10.93;6.78;;;;;;;;;;5017410;28;20457;-84
2024/01/31 03:51:36;;;;;;;10.82;7.05;;;;;;;;;;5048270;28;20048;-84
2024/01/31 03:54:03;;;;;;;9.70;6.88;;;;;;;;;;5039486;28;20447;-84
2024/01/31 03:56:31;;;;;;;11.82;6.53;;;;;;;;;;5046615;28;20053;-85
2024/01/31 03:58:58;;;;;;;15.90;6.72;;;;;;;;;;5049078;28;20095;-84
2024/01/31 04:01:26;;;;;;;11.80;6.90;;;;;;;;;;5041783;28;20050;-85
2024/01/31 04:03:53;;;;;;;10.63;7.03;;;;;;;;;;5051549;28;20049;-84
2024/01/31 04:06:21;;;;;;;7.75;5.90;;;;;;;;;;5043220;28;20132;-84
2024/01/31 04:08:48;;;;;;;11.70;6.63;;;;;;;;;;5044660;28;20050;-84
2024/01/31 04:11:15;;;;;;;10.45;6.72;;;;;;;;;;5030917;28;20045;-84
2024/01/31 04:13:46;;;;;;;10.40;6.97;;;;;;;;;;5039962;28;20057;-84
2024/01/31 04:16:16;;;;;;;10.30;6.68;;;;;;;;;;5030656;28;20099;-84
2024/01/31 04:18:44;;;;;;;8.27;6.30;;;;;;;;;;5027846;28;20065;-83
2024/01/31 04:21:18;;;;;;;12.20;7.13;;;;;;;;;;5029722;28;20057;-84
2024/01/31 04:23:45;;;;;;;8.25;6.47;;;;;;;;;;5025532;28;20045;-84
2024/01/31 04:26:12;;;;;;;10.00;6.78;;;;;;;;;;5047950;28;20061;-83
2024/01/31 04:28:39;;;;;;;8.45;6.35;;;;;;;;;;5027723;28;20045;-84
2024/01/31 04:31:14;;;;;;;12.35;7.70;;;;;;;;;;5027723;28;20395;-84
2024/01/31 04:33:42;;;;;;;10.20;7.07;;;;;;;;;;5040053;28;20085;-83
2024/01/31 04:36:09;;;;;;;13.27;7.80;;;;;;;;;;5046381;28;20056;-84
2024/01/31 04:38:37;;;;;;;13.27;7.47;;;;;;;;;;5031694;28;20407;-84
2024/01/31 04:41:04;;;;;;;12.88;7.93;;;;;;;;;;5025586;28;20049;-83
2024/01/31 04:43:32;;;;;;;12.57;7.15;;;;;;;;;;5026277;28;20046;-84
2024/01/31 04:46:00;;;;;;;11.20;7.65;;;;;;;;;;5022043;28;20046;-84
2024/01/31 04:48:28;;;;;;;13.20;8.00;;;;;;;;;;5016361;28;20053;-84
2024/01/31 04:50:56;;;;;;;9.82;7.38;;;;;;;;;;5023711;28;20046;-84
2024/01/31 04:53:23;;;;;;;8.88;7.13;;;;;;;;;;5026715;28;20053;-84
2024/01/31 04:55:50;;;;;;;13.98;7.53;;;;;;;;;;5023040;28;20045;-84
2024/01/31 04:58:17;;;;;;;16.90;8.30;;;;;;;;;;5025547;28;20045;-84
2024/01/31 05:00:45;;;;;;;13.93;8.35;;;;;;;;;;5033195;28;20696;-84
2024/01/31 05:03:12;;;;;;;13.40;8.55;;;;;;;;;;5048727;28;20411;-84
2024/01/31 05:05:40;;;;;;;10.55;7.53;;;;;;;;;;5032353;28;20118;-84
2024/01/31 05:08:07;;;;;;;12.05;8.10;;;;;;;;;;5042114;28;20045;-82
2024/01/31 05:10:36;;;;;;;13.85;8.07;;;;;;;;;;5028329;28;20054;-84
2024/01/31 05:13:03;;;;;;;11.35;7.70;;;;;;;;;;5022548;28;20069;-84
2024/01/31 05:15:31;;;;;;;11.02;8.32;;;;;;;;;;5046626;28;20045;-84
2024/01/31 05:17:59;;;;;;;11.75;8.75;;;;;;;;;;5036644;28;20076;-84
2024/01/31 05:20:29;;;;;;;14.35;9.43;;;;;;;;;;5040592;28;20118;-85
2024/01/31 05:22:56;;;;;;;13.77;8.95;;;;;;;;;;5039866;28;20136;-84
2024/01/31 05:25:24;;;;;;;15.27;9.98;;;;;;;;;;5042148;28;20132;-84
2024/01/31 05:27:51;;;;;;;13.43;8.90;;;;;;;;;;5042989;28;20048;-84
2024/01/31 05:30:18;;;;;;;16.30;9.18;;;;;;;;;;5031754;28;20534;-84
2024/01/31 05:32:46;;;;;;;14.93;9.70;;;;;;;;;;5033367;28;20046;-84
2024/01/31 05:35:14;;;;;;;16.95;10.05;;;;;;;;;;5035968;28;20053;-84
2024/01/31 05:37:41;;;;;;;15.38;10.00;;;;;;;;;;5039470;28;20045;-84
2024/01/31 05:40:09;;;;;;;18.25;10.48;;;;;;;;;;5039892;28;20114;-84
2024/01/31 05:42:36;;;;;;;14.90;9.85;;;;;;;;;;5024202;28;20081;-84
2024/01/31 05:45:04;;;;;;;17.83;10.20;;;;;;;;;;5023428;28;20089;-84
2024/01/31 05:47:31;;;;;;;13.98;9.45;;;;;;;;;;5042935;28;20057;-84
2024/01/31 05:49:58;;;;;;;14.52;9.32;;;;;;;;;;5030324;28;20053;-84
2024/01/31 05:52:26;;;;;;;13.27;9.30;;;;;;;;;;5028370;28;20103;-84
2024/01/31 05:54:53;;;;;;;17.95;10.20;;;;;;;;;;5026491;28;20046;-84
2024/01/31 05:57:20;;;;;;;17.02;10.05;;;;;;;;;;5027784;28;20502;-84
2024/01/31 05:59:48;;;;;;;13.98;9.93;;;;;;;;;;5030308;28;20041;-84
2024/01/31 06:02:15;;;;;;;19.17;12.13;;;;;;;;;;5029681;28;20055;-83
2024/01/31 06:04:42;;;;;;;16.15;11.15;;;;;;;;;;5021921;28;20063;-84
2024/01/31 06:07:12;;;;;;;16.83;10.20;;;;;;;;;;5029566;28;20080;-84
2024/01/31 06:09:39;;;;;;;18.45;10.32;;;;;;;;;;5050757;28;20550;-84
2024/01/31 06:12:07;;;;;;;14.77;9.68;;;;;;;;;;5048886;28;20113;-83
2024/01/31 06:14:38;;;;;;;21.67;9.95;;;;;;;;;;5031495;28;20127;-84
2024/01/31 06:17:05;;;;;;;20.90;12.07;;;;;;;;;;5029006;28;20077;-84
2024/01/31 06:19:32;;;;;;;20.60;12.43;;;;;;;;;;5030356;28;20449;-84
2024/01/31 06:22:00;;;;;;;26.75;12.93;;;;;;;;;;5045818;28;20103;-84
2024/01/31 06:24:27;;;;;;;25.98;13.90;;;;;;;;;;5034245;28;20060;-84
2024/01/31 06:26:54;;;;;;;19.27;11.32;;;;;;;;;;5043652;28;20084;-85
2024/01/31 06:29:21;;;;;;;16.92;10.98;;;;;;;;;;5037166;28;20108;-84
2024/01/31 06:31:51;;;;;;;16.95;9.70;;;;;;;;;;5050527;28;20441;-84
2024/01/31 06:34:19;;;;;;;15.57;9.88;;;;;;;;;;5050485;28;20111;-84
2024/01/31 06:36:46;;;;;;;15.63;9.52;;;;;;;;;;5035006;28;20049;-84
2024/01/31 06:39:14;;;;;;;16.67;11.15;;;;;;;;;;5035462;28;20455;-84
2024/01/31 06:41:42;;;;;;;17.58;10.80;;;;;;;;;;5054515;28;20062;-84
2024/01/31 06:44:09;;;;;;;17.25;10.50;;;;;;;;;;5032944;28;20065;-84
2024/01/31 06:46:36;;;;;;;17.67;10.25;;;;;;;;;;5040982;28;20449;-83
2024/01/31 06:49:04;;;;;;;20.38;11.57;;;;;;;;;;5039288;28;20054;-84
2024/01/31 06:51:31;;;;;;;19.02;11.88;;;;;;;;;;5042011;28;20049;-84
2024/01/31 06:53:59;;;;;;;23.27;11.45;;;;;;;;;;5025764;28;20049;-83
2024/01/31 06:56:26;;;;;;;18.02;11.30;;;;;;;;;;5043516;28;20049;-83
2024/01/31 06:58:55;;;;;;;16.88;11.55;;;;;;;;;;5031445;28;20103;-83
2024/01/31 07:01:22;;;;;;;15.23;10.60;;;;;;;;;;5026158;28;20104;-84
2024/01/31 07:03:49;;;;;;;22.10;11.60;;;;;;;;;;5028939;28;20057;-83
2024/01/31 07:06:17;;;;;;;20.42;13.60;;;;;;;;;;5022011;28;20133;-84
2024/01/31 07:08:44;;;;;;;34.45;20.27;;;;;;;;;;5029790;28;20060;-83
2024/01/31 07:11:11;;;;;;;38.38;22.67;;;;;;;;;;5047667;28;20100;-83
2024/01/31 07:13:42;;;;;;;26.55;17.17;;;;;;;;;;5035147;28;20046;-84
2024/01/31 07:16:10;;;;;;;20.27;12.43;;;;;;;;;;5028755;28;20100;-83
2024/01/31 07:18:41;;;;;;;20.45;12.15;;;;;;;;;;5041972;28;20574;-84
2024/01/31 07:21:09;;;;;;;25.15;13.10;;;;;;;;;;5026948;28;20054;-84
2024/01/31 07:23:41;;;;;;;22.05;13.05;;;;;;;;;;5038991;28;20045;-84
2024/01/31 07:26:08;;;;;;;20.23;12.23;;;;;;;;;;5029559;28;20041;-84
2024/01/31 07:28:36;;;;;;;28.08;13.38;;;;;;;;;;5026964;28;20049;-84
2024/01/31 07:31:06;;;;;;;20.40;12.40;;;;;;;;;;5026170;28;20046;-83
2024/01/31 07:33:35;;;;;;;23.05;12.75;;;;;;;;;;5026025;28;20052;-85
2024/01/31 07:36:02;;;;;;;17.90;11.80;;;;;;;;;;5040751;28;20556;-84
2024/01/31 07:38:31;;;;;;;21.13;12.77;;;;;;;;;;5032777;28;20080;-84
2024/01/31 07:40:58;;;;;;;19.08;12.60;;;;;;;;;;5041895;28;20049;-84
2024/01/31 07:43:25;;;;;;;20.10;13.18;;;;;;;;;;5031088;28;20084;-84
2024/01/31 07:45:53;;;;;;;20.60;13.68;;;;;;;;;;5031987;28;20060;-84
2024/01/31 07:48:20;;;;;;;20.00;13.50;;;;;;;;;;5032100;28;20060;-84
2024/01/31 07:50:47;;;;;;;24.10;14.23;;;;;;;;;;5039238;28;20493;-84
2024/01/31 07:53:14;;;;;;;21.67;12.50;;;;;;;;;;5045330;28;20045;-85
2024/01/31 07:55:42;;;;;;;25.98;13.48;;;;;;;;;;5048971;28;20186;-84
2024/01/31 07:58:09;;;;;;;22.67;13.23;;;;;;;;;;5042010;28;20135;-83
2024/01/31 08:00:36;;;;;;;21.52;13.02;;;;;;;;;;5038626;28;20053;-84
2024/01/31 08:03:04;;;;;;;20.52;13.38;;;;;;;;;;5036887;28;20072;-83
2024/01/31 08:05:31;;;;;;;24.98;13.40;;;;;;;;;;5027726;28;20056;-85
2024/01/31 08:07:59;;;;;;;16.88;12.68;;;;;;;;;;5021201;28;20050;-84
2024/01/31 08:10:26;;;;;;;27.25;13.88;;;;;;;;;;5023721;28;20057;-83
2024/01/31 08:12:53;;;;;;;20.58;13.85;;;;;;;;;;5023256;28;20050;-83
2024/01/31 08:15:21;;;;;;;20.20;13.15;;;;;;;;;;5025497;28;20054;-84
2024/01/31 08:17:49;;;;;;;27.15;14.45;;;;;;;;;;5026852;28;20052;-84
2024/01/31 08:20:16;;;;;;;24.98;15.13;;;;;;;;;;5028777;28;20100;-84
2024/01/31 08:22:44;;;;;;;24.25;13.02;;;;;;;;;;5032361;28;20045;-84
2024/01/31 08:25:11;;;;;;;25.48;14.63;;;;;;;;;;5039782;28;20136;-84
2024/01/31 08:27:38;;;;;;;22.70;14.52;;;;;;;;;;5041186;28;20060;-84
2024/01/31 08:30:06;;;;;;;28.55;16.35;;;;;;;;;;5024800;28;20057;-84
2024/01/31 08:32:34;;;;;;;23.63;15.57;;;;;;;;;;5027817;28;20096;-84
2024/01/31 08:35:03;;;;;;;37.38;20.50;;;;;;;;;;5045251;28;20099;-84
2024/01/31 08:37:31;;;;;;;34.10;20.55;;;;;;;;;;5026350;28;20109;-84
2024/01/31 08:39:58;;;;;;;32.08;19.63;;;;;;;;;;5040964;28;20052;-84
2024/01/31 08:42:28;;;;;;;30.40;18.92;;;;;;;;;;5028783;28;20056;-85
2024/01/31 08:44:56;;;;;;;36.15;20.33;;;;;;;;;;5039510;28;20049;-85
2024/01/31 08:47:23;;;;;;;42.80;25.67;;;;;;;;;;5046113;28;20053;-84
2024/01/31 08:49:51;;;;;;;51.50;28.73;;;;;;;;;;5024753;28;20058;-83
2024/01/31 08:52:18;;;;;;;38.63;25.15;;;;;;;;;;5037433;28;20072;-84
2024/01/31 08:54:45;;;;;;;42.10;26.55;;;;;;;;;;5037806;28;20076;-84
2024/01/31 08:57:13;;;;;;;48.00;29.35;;;;;;;;;;5030618;28;20045;-84
2024/01/31 08:59:42;;;;;;;39.22;25.13;;;;;;;;;;5048368;28;20400;-84
2024/01/31 09:02:10;;;;;;;41.67;25.65;;;;;;;;;;5034262;28;20060;-85
2024/01/31 09:04:38;;;;;;;35.70;23.98;;;;;;;;;;5034674;28;20057;-84
2024/01/31 09:07:07;;;;;;;34.33;22.10;;;;;;;;;;5052562;28;20060;-85
2024/01/31 09:09:38;;;;;;;31.85;17.85;;;;;;;;;;5051956;28;20433;-84
2024/01/31 09:12:08;;;;;;;30.63;18.73;;;;;;;;;;5020202;28;20065;-83
2024/01/31 09:14:36;;;;;;;24.15;15.00;;;;;;;;;;5021609;28;20077;-84
2024/01/31 09:17:03;;;;;;;22.17;12.48;;;;;;;;;;5021092;28;20045;-83
2024/01/31 09:19:31;;;;;;;22.42;12.10;;;;;;;;;;5022793;28;20395;-83
2024/01/31 09:21:59;;;;;;;20.17;11.25;;;;;;;;;;5021632;28;20049;-83
2024/01/31 09:24:27;;;;;;;18.15;10.27;;;;;;;;;;5040914;28;20497;-82
2024/01/31 09:26:54;;;;;;;15.85;8.75;;;;;;;;;;5036180;28;20076;-83
2024/01/31 09:29:21;;;;;;;16.40;7.32;;;;;;;;;;5045216;28;20107;-82
2024/01/31 09:31:49;;;;;;;17.27;7.80;;;;;;;;;;5021873;28;20045;-83
2024/01/31 09:34:16;;;;;;;12.15;7.95;;;;;;;;;;5027430;28;20059;-82
2024/01/31 09:36:48;;;;;;;13.50;7.03;;;;;;;;;;5039273;28;20045;-83
2024/01/31 09:39:15;;;;;;;14.48;7.22;;;;;;;;;;5047515;28;20494;-83
2024/01/31 09:41:43;;;;;;;16.60;8.52;;;;;;;;;;5044195;28;20045;-83
2024/01/31 09:44:10;;;;;;;24.13;11.90;;;;;;;;;;5044190;28;20049;-83
2024/01/31 09:46:40;;;;;;;24.30;12.05;;;;;;;;;;5047495;28;20048;-83
2024/01/31 09:49:08;;;;;;;20.30;10.20;;;;;;;;;;5036634;28;20054;-83
2024/01/31 09:51:37;;;;;;;19.98;8.35;;;;;;;;;;5034095;28;20050;-83
2024/01/31 09:54:06;;;;;;;18.02;8.48;;;;;;;;;;5037295;28;20041;-83
2024/01/31 09:56:33;;;;;;;19.27;10.20;;;;;;;;;;5047261;28;20045;-83
2024/01/31 09:59:01;;;;;;;18.60;8.85;;;;;;;;;;5047916;28;20045;-83
2024/01/31 10:01:29;;;;;;;20.35;9.57;;;;;;;;;;5046506;28;20045;-83
2024/01/31 10:03:59;;;;;;;16.15;7.68;;;;;;;;;;5044925;28;20050;-84
2024/01/31 10:06:28;;;;;;;22.60;9.75;;;;;;;;;;5046572;28;20529;-84
2024/01/31 10:08:59;;;;;;;16.92;7.90;;;;;;;;;;5048699;28;20049;-83
2024/01/31 10:11:30;;;;;;;18.00;7.55;;;;;;;;;;5046511;28;20132;-84
2024/01/31 10:13:57;;;;;;;13.93;7.40;;;;;;;;;;5043763;28;20045;-81
2024/01/31 10:16:25;;;;;;;7.18;4.63;;;;;;;;;;5024440;28;20053;-83
2024/01/31 10:18:52;;;;;;;3.70;2.13;;;;;;;;;;5014857;28;20058;-83
2024/01/31 10:21:21;;;;;;;1.60;1.50;;;;;;;;;;5025338;28;20096;-83
2024/01/31 10:24:04;;;;;;;1.10;1.10;;;;;;;;;;5046445;28;20045;-84
2024/01/31 10:26:33;;;;;;;1.67;1.58;;;;;;;;;;5045599;28;20056;-83
2024/01/31 10:29:01;;;;;;;0.82;0.82;;;;;;;;;;5046393;28;20052;-83
2024/01/31 10:31:37;;;;;;;0.80;0.80;;;;;;;;;;5032743;28;20275;-83
2024/01/31 10:34:07;;;;;;;1.15;1.10;;;;;;;;;;5037470;28;20518;-83
2024/01/31 10:36:36;;;;;;;2.90;2.70;;;;;;;;;;5045976;28;20656;-83
2024/01/31 10:39:09;;;;;;;3.00;1.08;;;;;;;;;;5046666;28;20197;-83
2024/01/31 10:41:43;;;;;;;1.00;0.90;;;;;;;;;;5043794;28;20049;-83
2024/01/31 10:44:14;;;;;;;2.00;1.17;;;;;;;;;;5044702;28;20049;-83
2024/01/31 10:46:43;;;;;;;1.40;0.77;;;;;;;;;;5036554;28;20521;-83
2024/01/31 10:49:13;;;;;;;1.05;0.93;;;;;;;;;;5043417;28;20068;-83
2024/01/31 10:51:42;;;;;;;1.98;0.80;;;;;;;;;;5043302;28;20056;-83
2024/01/31 10:54:09;;;;;;;0.73;0.73;;;;;;;;;;5043170;28;20056;-83
2024/01/31 10:56:37;;;;;;;0.98;0.80;;;;;;;;;;5046198;28;20048;-83
2024/01/31 10:59:09;;;;;;;3.28;1.27;;;;;;;;;;5045986;28;20528;-83
2024/01/31 11:01:36;;;;;;;3.28;1.25;;;;;;;;;;5043697;28;20053;-83
2024/01/31 11:04:03;;;;;;;0.98;0.98;;;;;;;;;;5043223;28;20560;-83
2024/01/31 11:06:39;;;;;;;10.55;2.05;;;;;;;;;;5045878;28;20080;-83
2024/01/31 11:09:08;;;;;;;4.60;2.05;;;;;;;;;;5048032;28;20059;-84
2024/01/31 11:11:35;;;;;;;1.02;0.90;;;;;;;;;;5044468;28;20144;-83
2024/01/31 11:14:09;;;;;;;0.60;0.60;;;;;;;;;;5043556;28;20051;-83
2024/01/31 11:16:37;;;;;;;3.60;1.10;;;;;;;;;;5046617;28;20067;-83
2024/01/31 11:19:05;;;;;;;4.05;1.00;;;;;;;;;;5047045;28;20041;-84
2024/01/31 11:21:38;;;;;;;0.70;0.70;;;;;;;;;;5044781;28;20413;-84
2024/01/31 11:24:05;;;;;;;;;;;;;;;;;;5044383;28;20057;-83
2024/01/31 11:26:39;;;;;;;0.90;0.90;;;;;;;;;;5047300;28;19920;-84
2024/01/31 11:29:08;;;;;;;0.80;0.80;;;;;;;;;;5047815;28;20136;-83
2024/01/31 11:31:35;;;;;;;0.73;0.73;;;;;;;;;;5044730;28;20053;-84
2024/01/31 11:34:02;;;;;;;1.88;1.38;;;;;;;;;;5044920;28;20100;-84
2024/01/31 11:36:30;;;;;;;0.70;0.70;;;;;;;;;;5047028;28;20046;-84
2024/01/31 11:38:57;;;;;;;0.70;0.70;;;;;;;;;;5049094;28;20052;-83
2024/01/31 11:41:25;;;;;;;1.00;1.00;;;;;;;;;;5044188;28;20051;-83
2024/01/31 11:43:52;;;;;;;3.90;1.10;;;;;;;;;;5042711;28;20116;-83
2024/01/31 11:46:19;;;;;;;1.40;1.10;;;;;;;;;;5041634;28;20057;-83
2024/01/31 11:48:48;;;;;;;3.55;2.22;;;;;;;;;;5045251;28;20482;-84
2024/01/31 11:51:15;;;;;;;3.05;1.65;;;;;;;;;;5045303;28;20433;-84
2024/01/31 11:53:43;;;;;;;0.90;0.90;;;;;;;;;;5030812;28;20050;-83
2024/01/31 11:56:11;;;;;;;1.85;0.82;;;;;;;;;;5037999;28;20056;-83
2024/01/31 11:58:38;;;;;;;3.88;1.27;;;;;;;;;;5045092;28;20049;-82
2024/01/31 12:01:06;;;;;;;2.83;1.00;;;;;;;;;;5046425;28;20098;-83
2024/01/31 12:03:34;;;;;;;1.90;1.10;;;;;;;;;;5045381;28;20076;-83
2024/01/31 12:06:04;;;;;;;2.40;0.90;;;;;;;;;;5038570;28;20528;-84
2024/01/31 12:08:35;;;;;;;24.58;2.88;;;;;;;;;;5041420;28;20059;-84
2024/01/31 12:11:02;;;;;;;4.18;1.40;;;;;;;;;;5041736;28;20060;-84
2024/01/31 12:13:29;;;;;;;13.00;1.77;;;;;;;;;;5043792;28;20133;-84
2024/01/31 12:15:59;;;;;;;1.85;1.15;;;;;;;;;;5046013;28;20470;-84
2024/01/31 12:18:26;;;;;;;1.10;0.90;;;;;;;;;;5043414;28;20099;-83
2024/01/31 12:21:02;;;;;;;3.08;1.10;;;;;;;;;;5043177;28;20053;-83
2024/01/31 12:23:30;;;;;;;0.98;0.98;;;;;;;;;;5043551;28;20076;-84
2024/01/31 12:25:58;;;;;;;18.67;2.35;;;;;;;;;;5039374;28;20058;-84
2024/01/31 12:28:26;;;;;;;8.60;1.75;;;;;;;;;;5045287;28;20057;-84
2024/01/31 12:30:53;;;;;;;7.60;2.00;;;;;;;;;;5045906;28;20559;-84
2024/01/31 12:33:21;;;;;;;1.10;1.00;;;;;;;;;;5045451;28;20045;-83
2024/01/31 12:35:48;;;;;;;2.13;0.77;;;;;;;;;;5045930;28;20410;-84
2024/01/31 12:38:15;;;;;;;0.93;0.93;;;;;;;;;;5046907;28;20045;-84
2024/01/31 12:40:43;;;;;;;6.70;1.70;;;;;;;;;;5042338;28;20049;-84
2024/01/31 12:43:10;;;;;;;12.32;2.60;;;;;;;;;;5041861;28;20072;-84
2024/01/31 12:45:38;;;;;;;2.60;1.35;;;;;;;;;;5037898;28;20045;-84
2024/01/31 12:48:06;;;;;;;2.65;1.52;;;;;;;;;;5034125;28;20054;-84
2024/01/31 12:50:33;;;;;;;0.88;0.88;;;;;;;;;;5045733;28;20053;-85
2024/01/31 12:53:00;;;;;;;5.97;1.40;;;;;;;;;;5049731;28;20132;-84
2024/01/31 12:55:27;;;;;;;1.50;0.90;;;;;;;;;;5043682;28;20049;-84
2024/01/31 12:57:55;;;;;;;1.60;1.50;;;;;;;;;;5043838;28;20494;-84
2024/01/31 13:00:22;;;;;;;13.88;1.70;;;;;;;;;;5043053;28;20048;-84
2024/01/31 13:02:49;;;;;;;2.25;1.65;;;;;;;;;;5037145;28;20041;-83
2024/01/31 13:05:17;;;;;;;5.88;2.20;;;;;;;;;;5035916;28;20053;-84
2024/01/31 13:07:45;;;;;;;3.72;1.45;;;;;;;;;;5045431;28;20083;-83
2024/01/31 13:10:12;;;;;;;2.25;1.60;;;;;;;;;;5045196;28;20098;-84
2024/01/31 13:12:39;;;;;;;4.30;1.50;;;;;;;;;;5041945;28;20494;-84
2024/01/31 13:15:07;;;;;;;1.50;1.30;;;;;;;;;;5022991;28;20068;-83
2024/01/31 13:17:35;;;;;;;1.00;1.00;;;;;;;;;;5046596;28;20049;-83
2024/01/31 13:20:08;;;;;;;1.88;1.40;;;;;;;;;;5025635;28;20074;-82
2024/01/31 13:22:36;;;;;;;1.50;1.40;;;;;;;;;;5023522;28;20410;-83
2024/01/31 13:25:05;;;;;;;1.40;1.30;;;;;;;;;;5026881;28;20050;-84
2024/01/31 13:27:32;;;;;;;2.28;2.13;;;;;;;;;;5042166;28;20418;-85
2024/01/31 13:30:00;;;;;;;5.88;2.53;;;;;;;;;;5032628;28;20053;-85
2024/01/31 13:32:27;;;;;;;3.47;1.83;;;;;;;;;;5035150;28;20407;-85
2024/01/31 13:34:54;;;;;;;3.70;1.70;;;;;;;;;;5026411;28;20046;-84
2024/01/31 13:37:22;;;;;;;2.80;1.70;;;;;;;;;;5035244;28;20045;-85
2024/01/31 13:39:49;;;;;;;2.08;1.88;;;;;;;;;;5033026;28;20050;-84
2024/01/31 13:42:17;;;;;;;3.65;1.73;;;;;;;;;;5046408;28;20120;-84
2024/01/31 13:44:44;;;;;;;3.95;2.15;;;;;;;;;;5031901;28;20075;-82
2024/01/31 13:47:11;;;;;;;9.75;2.72;;;;;;;;;;5047865;28;20402;-84
2024/01/31 13:49:38;;;;;;;2.17;2.08;;;;;;;;;;5040513;28;20127;-85
2024/01/31 13:52:06;;;;;;;1.70;1.60;;;;;;;;;;5041344;28;20065;-84
2024/01/31 13:54:33;;;;;;;15.52;3.30;;;;;;;;;;5044784;28;20049;-84
2024/01/31 13:57:02;;;;;;;11.88;2.65;;;;;;;;;;5052462;28;20053;-84
2024/01/31 13:59:30;;;;;;;5.35;2.03;;;;;;;;;;5045222;28;20045;-85
2024/01/31 14:01:57;;;;;;;2.47;2.20;;;;;;;;;;5032373;28;20047;-84
2024/01/31 14:04:26;;;;;;;2.30;1.90;;;;;;;;;;5028751;28;20495;-85
2024/01/31 14:06:53;;;;;;;2.40;2.30;;;;;;;;;;5032228;28;20058;-85
2024/01/31 14:09:22;;;;;;;2.95;2.42;;;;;;;;;;5034195;28;20049;-84
2024/01/31 14:11:51;;;;;;;2.60;2.15;;;;;;;;;;5035405;28;20132;-81
2024/01/31 14:14:19;;;;;;;4.35;3.20;;;;;;;;;;5040731;28;20088;-84
2024/01/31 14:16:46;;;;;;;7.50;2.58;;;;;;;;;;5029909;28;20046;-84
2024/01/31 14:19:13;;;;;;;2.90;1.98;;;;;;;;;;5029454;28;20045;-84
2024/01/31 14:21:40;;;;;;;7.68;2.70;;;;;;;;;;5027092;28;20054;-84
2024/01/31 14:24:08;;;;;;;1.88;1.77;;;;;;;;;;5039914;28;20126;-84
2024/01/31 14:26:43;;;;;;;2.00;1.80;;;;;;;;;;5037962;28;20057;-85
2024/01/31 14:29:14;;;;;;;4.00;1.73;;;;;;;;;;5029411;28;20053;-84
2024/01/31 14:31:45;;;;;;;2.15;1.65;;;;;;;;;;5029200;28;20056;-84
2024/01/31 14:34:13;;;;;;;2.25;1.70;;;;;;;;;;5028260;28;20121;-83